Terminal Aerodrome Forecast
Issued by NWS

Home | Current Version | Previous Version | Text Only | Print | Product List | Glossary On
Versions: 1 2 3 4 5 6 7 8 9 10 11 12 13
000
FTUS45 KGGW 260520
TAFGDV
TAF
KGDV 260520Z 2606/2706 VRB06KT P6SM SKC
     FM262300 14011KT P6SM FEW120
     FM270100 11008KT P6SM SCT110
     FM270400 08008KT P6SM -TSRA SCT100CB=

USA.gov is the U.S. government's official web portal to all federal, state and local government web resources and services.